createdAt,value
2019-04-21T00:02:03.266Z,97.10
2019-04-21T00:04:48.445Z,97.20
2019-04-21T00:07:26.074Z,97.70
2019-04-21T00:10:02.613Z,97.20
2019-04-21T00:12:31.466Z,98.40
2019-04-21T00:14:54.848Z,97.70
2019-04-21T00:17:18.191Z,97.20
2019-04-21T00:20:05.499Z,97.70
2019-04-21T00:22:38.267Z,97.60
2019-04-21T00:25:14.047Z,97.70
2019-04-21T00:27:48.767Z,97.50
2019-04-21T00:30:25.361Z,97.10
2019-04-21T00:32:46.497Z,96.60
2019-04-21T00:35:11.709Z,97.30
2019-04-21T00:38:00.548Z,96.70
2019-04-21T00:40:35.532Z,96.60
2019-04-21T00:43:01.282Z,97.20
2019-04-21T00:45:27.507Z,97.70
2019-04-21T00:48:14.439Z,97.70
2019-04-21T00:50:51.476Z,97.30
2019-04-21T00:53:29.791Z,97.50
2019-04-21T00:55:59.434Z,97.00
2019-04-21T01:01:02.199Z,97.00
2019-04-21T01:03:33.499Z,96.80
2019-04-21T01:06:06.131Z,97.10
2019-04-21T01:08:39.997Z,97.70
2019-04-21T01:11:10.079Z,97.90
2019-04-21T01:13:41.516Z,98.90
2019-04-21T01:16:17.440Z,98.60
2019-04-21T01:18:46.299Z,99.70
2019-04-21T01:20:55.385Z,98.90
2019-04-21T01:23:25.937Z,99.10
2019-04-21T01:26:13.859Z,99.40
2019-04-21T01:28:48.238Z,99.70
2019-04-21T01:31:17.085Z,99.50
2019-04-21T01:33:50.856Z,98.90
2019-04-21T01:36:24.182Z,99.20
2019-04-21T01:39:02.138Z,98.80
2019-04-21T01:41:31.394Z,98.80
2019-04-21T01:43:57.836Z,98.70
2019-04-21T01:46:30.902Z,98.10
2019-04-21T01:48:57.038Z,97.70
2019-04-21T01:51:36.787Z,98.00
2019-04-21T01:54:14.841Z,97.90
2019-04-21T01:57:04.341Z,96.90
2019-04-21T01:59:33.682Z,96.90
2019-04-21T02:02:10.626Z,96.70
2019-04-21T02:04:54.302Z,96.10
2019-04-21T02:07:14.782Z,95.80
2019-04-21T02:09:44.328Z,95.70
2019-04-21T02:12:18.837Z,95.40
2019-04-21T02:14:59.216Z,95.80
2019-04-21T02:17:26.476Z,95.70
2019-04-21T02:19:51.726Z,95.60
2019-04-21T02:22:35.375Z,95.70
2019-04-21T02:25:01.010Z,96.40
2019-04-21T02:27:33.068Z,96.20
2019-04-21T02:30:10.227Z,96.40
2019-04-21T02:32:43.549Z,97.20
2019-04-21T02:35:25.191Z,96.80
2019-04-21T02:37:55.477Z,97.60
2019-04-21T02:42:59.872Z,98.10
2019-04-21T02:45:23.515Z,97.60
2019-04-21T02:48:06.318Z,97.20
2019-04-21T02:50:28.187Z,97.40
2019-04-21T02:58:06.313Z,96.40
2019-04-21T03:00:42.776Z,97.40
2019-04-21T03:06:06.170Z,97.00
2019-04-21T03:08:50.619Z,97.00
2019-04-21T03:13:47.335Z,96.40
2019-04-21T03:16:23.469Z,96.50
2019-04-21T03:18:57.116Z,96.10
2019-04-21T03:21:20.425Z,97.00
2019-04-21T03:24:15.270Z,96.80
2019-04-21T03:26:44.958Z,96.40
2019-04-21T03:31:59.625Z,96.80
2019-04-21T03:39:01.300Z,97.00
2019-04-21T03:42:00.237Z,96.80
2019-04-21T03:46:57.861Z,97.60
2019-04-21T03:49:19.271Z,98.10
2019-04-21T03:51:52.001Z,99.20
2019-04-21T03:54:21.940Z,99.30
2019-04-21T03:59:38.032Z,99.90
2019-04-21T04:02:28.653Z,99.90
2019-04-21T04:05:15.102Z,99.90
2019-04-21T04:08:14.806Z,99.90
2019-04-21T04:10:31.453Z,99.90
2019-04-21T04:13:05.885Z,99.90
2019-04-21T04:15:45.360Z,99.90
2019-04-21T04:18:17.270Z,99.90
2019-04-21T04:23:08.040Z,99.90
2019-04-21T04:25:49.666Z,99.90
2019-04-21T04:28:18.972Z,99.90
2019-04-21T04:33:29.506Z,99.90
2019-04-21T04:36:01.518Z,99.90
2019-04-21T04:38:34.082Z,99.90
2019-04-21T04:41:20.977Z,99.90
2019-04-21T04:43:42.359Z,99.90
2019-04-21T04:46:13.588Z,99.90
2019-04-21T04:48:47.571Z,99.90
2019-04-21T04:51:13.152Z,99.90
2019-04-21T04:53:47.069Z,99.90
2019-04-21T04:56:18.329Z,99.90
2019-04-21T04:59:23.252Z,99.90
2019-04-21T05:01:48.543Z,99.90
2019-04-21T05:09:13.297Z,99.90
2019-04-21T05:14:10.003Z,99.90
2019-04-21T05:24:01.376Z,99.90
2019-04-21T05:26:34.541Z,99.90
2019-04-21T05:28:58.801Z,99.90
2019-04-21T05:31:57.024Z,99.90
2019-04-21T05:34:48.687Z,99.90
2019-04-21T05:37:18.767Z,99.90
2019-04-21T05:39:51.259Z,99.90
2019-04-21T05:42:15.283Z,99.90
2019-04-21T05:45:08.068Z,99.90
2019-04-21T05:47:41.412Z,99.90
2019-04-21T05:50:12.381Z,99.90
2019-04-21T05:52:53.484Z,99.90
2019-04-21T05:58:02.680Z,99.90
2019-04-21T06:00:54.482Z,99.90
2019-04-21T06:03:10.159Z,99.90
2019-04-21T06:05:44.178Z,99.90
2019-04-21T06:08:13.259Z,99.90
2019-04-21T06:10:47.472Z,99.90
2019-04-21T06:13:22.115Z,99.90
2019-04-21T06:16:03.158Z,99.90
2019-04-21T06:18:27.195Z,99.90
2019-04-21T06:20:54.692Z,99.90
2019-04-21T06:23:27.029Z,99.90
2019-04-21T06:26:08.158Z,99.90
2019-04-21T06:28:37.921Z,99.90
2019-04-21T06:33:36.291Z,99.90
2019-04-21T06:36:31.779Z,99.90
2019-04-21T06:38:59.701Z,99.90
2019-04-21T06:41:26.501Z,99.90
2019-04-21T06:44:01.525Z,99.90
2019-04-21T06:46:33.524Z,99.90
2019-04-21T06:56:38.010Z,99.90
2019-04-21T06:59:06.435Z,99.90
2019-04-21T07:01:42.243Z,99.60
2019-04-21T07:04:17.500Z,99.00
2019-04-21T07:06:52.007Z,98.70
2019-04-21T07:11:44.000Z,98.50
2019-04-21T07:17:08.111Z,97.00
2019-04-21T07:19:31.490Z,96.80
2019-04-21T07:21:54.350Z,97.10
2019-04-21T07:27:00.286Z,96.10
2019-04-21T07:29:35.832Z,95.40
2019-04-21T07:32:05.028Z,95.40
2019-04-21T07:34:33.436Z,94.80
2019-04-21T07:37:17.381Z,94.50
2019-04-21T07:39:35.319Z,95.30
2019-04-21T07:42:06.513Z,94.90
2019-04-21T07:44:37.920Z,94.10
2019-04-21T07:47:11.822Z,94.10
2019-04-21T07:52:55.280Z,93.60
2019-04-21T07:55:22.126Z,94.10
2019-04-21T07:57:36.709Z,93.90
2019-04-21T08:00:21.392Z,93.40
2019-04-21T08:02:40.372Z,92.70
2019-04-21T08:07:54.289Z,93.10
2019-04-21T08:10:18.540Z,92.30
2019-04-21T08:12:47.349Z,91.60
2019-04-21T08:17:58.185Z,92.50
2019-04-21T08:20:24.620Z,90.60
2019-04-21T08:22:59.277Z,92.00
2019-04-21T08:25:41.982Z,91.50
2019-04-21T08:28:24.169Z,92.20
2019-04-21T08:30:36.239Z,92.40
2019-04-21T08:33:22.023Z,93.60
2019-04-21T08:38:13.844Z,92.20
2019-04-21T08:40:54.225Z,90.60
2019-04-21T08:43:20.770Z,91.30
2019-04-21T08:45:48.231Z,89.90
2019-04-21T08:48:17.078Z,90.70
2019-04-21T08:50:53.874Z,92.00
2019-04-21T08:53:27.400Z,90.70
2019-04-21T08:56:16.476Z,89.90
2019-04-21T08:58:56.179Z,90.30
2019-04-21T09:04:23.392Z,89.00
2019-04-21T09:09:31.951Z,87.40
2019-04-21T09:11:59.173Z,87.60
2019-04-21T09:14:38.978Z,85.40
2019-04-21T09:17:05.184Z,81.30
2019-04-21T09:19:53.397Z,80.60
2019-04-21T09:22:05.882Z,77.60
2019-04-21T09:24:41.291Z,73.10
2019-04-21T09:27:08.390Z,71.60
2019-04-21T09:29:36.044Z,70.90
2019-04-21T09:32:00.019Z,69.30
2019-04-21T09:34:37.004Z,64.50
2019-04-21T09:37:15.400Z,69.90
2019-04-21T09:39:40.977Z,63.20
2019-04-21T09:42:08.862Z,61.00
2019-04-21T09:44:42.542Z,59.80
2019-04-21T09:47:12.627Z,58.70
2019-04-21T09:49:43.368Z,57.70
2019-04-21T09:52:20.016Z,58.20
2019-04-21T09:54:57.485Z,59.50
2019-04-21T09:57:27.599Z,57.20
2019-04-21T10:00:02.447Z,61.50
2019-04-21T10:02:34.339Z,56.90
2019-04-21T10:04:55.230Z,57.50
2019-04-21T10:07:31.882Z,55.20
2019-04-21T10:09:58.203Z,54.50
2019-04-21T10:12:28.985Z,53.70
2019-04-21T10:14:59.755Z,53.20
2019-04-21T10:17:39.569Z,54.10
2019-04-21T10:20:11.818Z,54.20
2019-04-21T10:22:42.180Z,54.80
2019-04-21T10:25:12.825Z,52.20
2019-04-21T10:27:45.445Z,52.60
2019-04-21T10:30:16.431Z,52.90
2019-04-21T10:32:48.186Z,49.90
2019-04-21T10:35:21.191Z,51.30
2019-04-21T10:38:04.401Z,51.30
2019-04-21T10:40:23.518Z,50.40
2019-04-21T10:42:54.227Z,53.10
2019-04-21T10:45:25.208Z,51.60
2019-04-21T10:47:56.776Z,51.30
2019-04-21T10:50:28.656Z,48.70
2019-04-21T10:53:09.222Z,49.10
2019-04-21T10:55:54.303Z,48.90
2019-04-21T10:58:14.163Z,50.20
2019-04-21T11:00:46.161Z,48.70
2019-04-21T11:03:44.836Z,47.50
2019-04-21T11:06:18.883Z,49.70
2019-04-21T11:08:54.111Z,47.80
2019-04-21T11:11:21.874Z,44.80
2019-04-21T11:13:52.624Z,45.60
2019-04-21T11:16:23.579Z,45.70
2019-04-21T11:18:53.894Z,46.30
2019-04-21T11:21:24.914Z,46.50
2019-04-21T11:23:56.504Z,48.20
2019-04-21T11:26:27.593Z,45.00
2019-04-21T11:28:59.011Z,45.20
2019-04-21T11:31:29.422Z,43.90
2019-04-21T11:34:00.861Z,44.00
2019-04-21T11:36:33.151Z,44.50
2019-04-21T11:39:35.277Z,44.70
2019-04-21T11:41:54.710Z,43.60
2019-04-21T11:44:25.011Z,43.40
2019-04-21T11:46:56.356Z,46.20
2019-04-21T11:49:30.238Z,42.20
2019-04-21T11:51:58.829Z,43.70
2019-04-21T11:54:29.145Z,44.30
2019-04-21T11:57:02.217Z,43.40
2019-04-21T11:59:33.380Z,44.30
2019-04-21T12:02:05.584Z,42.30
2019-04-21T12:04:35.883Z,41.70
2019-04-21T12:07:07.224Z,43.70
2019-04-21T12:09:37.762Z,41.80
2019-04-21T12:12:09.593Z,41.40
2019-04-21T12:14:39.889Z,41.40
2019-04-21T12:17:10.471Z,40.10
2019-04-21T12:19:40.964Z,39.30
2019-04-21T12:22:20.176Z,41.60
2019-04-21T12:24:44.988Z,40.50
2019-04-21T12:27:16.156Z,39.40
2019-04-21T12:29:48.009Z,39.10
2019-04-21T12:32:40.961Z,40.40
2019-04-21T12:35:13.647Z,42.40
2019-04-21T12:37:44.786Z,38.70
2019-04-21T12:40:16.714Z,39.90
2019-04-21T12:42:48.312Z,38.60
2019-04-21T12:45:22.047Z,38.60
2019-04-21T12:47:53.789Z,40.10
2019-04-21T12:50:25.844Z,36.90
2019-04-21T12:52:56.240Z,38.40
2019-04-21T12:55:31.887Z,38.20
2019-04-21T12:57:59.429Z,36.70
2019-04-21T13:00:31.148Z,35.70
2019-04-21T13:03:01.761Z,36.80
2019-04-21T13:05:33.676Z,36.40
2019-04-21T13:08:04.966Z,36.20
2019-04-21T13:10:36.033Z,37.00
2019-04-21T13:13:06.302Z,35.40
2019-04-21T13:15:37.594Z,34.70
2019-04-21T13:18:08.334Z,34.40
2019-04-21T13:20:38.568Z,35.00
2019-04-21T13:23:10.163Z,33.60
2019-04-21T13:25:41.641Z,35.00
2019-04-21T13:28:12.601Z,33.50
2019-04-21T13:30:44.305Z,35.60
2019-04-21T13:33:15.442Z,33.10
2019-04-21T13:35:46.842Z,33.70
2019-04-21T13:38:26.942Z,35.00
2019-04-21T13:41:22.778Z,33.70
2019-04-21T13:43:39.448Z,32.70
2019-04-21T13:46:10.044Z,33.20
2019-04-21T13:48:40.625Z,35.50
2019-04-21T13:51:13.324Z,34.20
2019-04-21T13:53:43.928Z,33.90
2019-04-21T13:56:16.288Z,34.10
2019-04-21T13:58:46.704Z,32.90
2019-04-21T14:01:18.082Z,33.30
2019-04-21T14:03:49.390Z,35.40
2019-04-21T14:06:20.372Z,33.60
2019-04-21T14:08:51.174Z,34.10
2019-04-21T14:11:22.969Z,34.60
2019-04-21T14:13:54.404Z,34.70
2019-04-21T14:16:24.765Z,31.90
2019-04-21T14:18:57.124Z,35.20
2019-04-21T14:21:27.490Z,33.30
2019-04-21T14:23:59.464Z,34.10
2019-04-21T14:26:32.150Z,35.50
2019-04-21T14:29:03.605Z,34.30
2019-04-21T14:31:34.622Z,33.20
2019-04-21T14:34:05.979Z,33.30
2019-04-21T14:36:37.046Z,34.20
2019-04-21T14:39:12.397Z,35.40
2019-04-21T14:41:44.286Z,36.70
2019-04-21T14:44:49.516Z,35.40
2019-04-21T14:51:20.832Z,33.40
2019-04-21T14:54:10.130Z,33.50
2019-04-21T14:56:40.361Z,34.10
2019-04-21T14:59:11.296Z,36.00
2019-04-21T15:01:41.922Z,35.60
2019-04-21T15:04:14.347Z,33.70
2019-04-21T15:06:45.611Z,35.20
2019-04-21T15:09:15.765Z,35.80
2019-04-21T15:11:45.961Z,33.90
2019-04-21T15:14:16.173Z,33.30
2019-04-21T15:16:47.110Z,34.30
2019-04-21T15:19:17.865Z,34.20
2019-04-21T15:21:48.393Z,34.00
2019-04-21T15:25:09.995Z,34.20
2019-04-21T15:27:45.138Z,34.80
2019-04-21T15:30:18.613Z,32.60
2019-04-21T15:32:50.649Z,32.40
2019-04-21T15:35:21.357Z,31.80
2019-04-21T15:37:52.006Z,33.10
2019-04-21T15:40:33.737Z,34.50
2019-04-21T15:42:54.699Z,35.20
2019-04-21T15:45:26.343Z,35.10
2019-04-21T15:47:58.093Z,34.30
2019-04-21T15:50:28.445Z,34.40
2019-04-21T15:53:01.663Z,35.10
2019-04-21T15:55:41.279Z,34.90
2019-04-21T15:59:04.329Z,34.50
2019-04-21T16:01:52.522Z,33.40
2019-04-21T16:04:23.186Z,33.90
2019-04-21T16:06:53.565Z,35.90
2019-04-21T16:09:26.898Z,36.10
2019-04-21T16:11:55.905Z,38.40
2019-04-21T16:14:27.026Z,38.20
2019-04-21T16:16:57.438Z,38.70
2019-04-21T16:19:29.290Z,39.00
2019-04-21T16:22:01.123Z,41.00
2019-04-21T16:24:31.725Z,41.30
2019-04-21T16:27:05.347Z,41.00
2019-04-21T16:29:34.254Z,41.30
2019-04-21T16:32:05.337Z,40.60
2019-04-21T16:34:44.667Z,40.00
2019-04-21T16:37:09.701Z,39.90
2019-04-21T16:39:41.184Z,40.20
2019-04-21T16:42:12.082Z,40.80
2019-04-21T16:44:42.966Z,37.70
2019-04-21T16:47:13.826Z,36.70
2019-04-21T16:49:45.427Z,37.70
2019-04-21T16:52:20.284Z,36.40
2019-04-21T16:54:56.103Z,36.70
2019-04-21T16:58:04.596Z,35.20
2019-04-21T17:00:36.694Z,36.70
2019-04-21T17:03:00.690Z,36.50
2019-04-21T17:05:32.237Z,36.30
2019-04-21T17:08:03.970Z,36.90
2019-04-21T17:10:34.960Z,39.10
2019-04-21T17:13:06.245Z,41.30
2019-04-21T17:15:56.658Z,43.40
2019-04-21T17:18:25.180Z,43.30
2019-04-21T17:20:47.420Z,44.50
2019-04-21T17:23:13.467Z,45.30
2019-04-21T17:25:43.827Z,46.00
2019-04-21T17:28:15.388Z,45.70
2019-04-21T17:30:46.312Z,45.60
2019-04-21T17:33:21.672Z,44.60
2019-04-21T17:35:49.140Z,44.20
2019-04-21T17:38:19.481Z,47.60
2019-04-21T17:40:49.886Z,48.60
2019-04-21T17:43:21.640Z,49.60
2019-04-21T17:45:53.239Z,51.80
2019-04-21T17:48:25.146Z,53.80
2019-04-21T17:51:01.181Z,55.00
2019-04-21T17:53:43.817Z,56.20
2019-04-21T17:56:39.040Z,57.30
2019-04-21T17:59:04.158Z,58.60
2019-04-21T18:01:37.559Z,59.40
2019-04-21T18:04:11.072Z,60.10
2019-04-21T18:06:57.846Z,61.30
2019-04-21T18:09:37.010Z,61.90
2019-04-21T18:12:07.613Z,63.10
2019-04-21T18:14:22.053Z,62.70
2019-04-21T18:16:53.339Z,63.60
2019-04-21T18:22:14.730Z,86.10
2019-04-21T18:24:55.814Z,65.80
2019-04-21T18:27:19.704Z,67.40
2019-04-21T18:29:54.663Z,68.00
2019-04-21T18:32:30.804Z,68.90
2019-04-21T18:35:35.985Z,70.50
2019-04-21T18:38:16.913Z,71.60
2019-04-21T18:40:45.945Z,72.50
2019-04-21T18:43:53.076Z,73.20
2019-04-21T18:46:34.122Z,74.60
2019-04-21T18:48:57.014Z,75.60
2019-04-21T18:51:56.575Z,76.90
2019-04-21T18:54:41.483Z,78.00
2019-04-21T18:57:08.255Z,79.00
2019-04-21T18:59:34.577Z,79.90
2019-04-21T19:02:06.492Z,81.60
2019-04-21T19:04:35.145Z,82.90
2019-04-21T19:07:19.853Z,84.90
2019-04-21T19:12:47.622Z,90.10
2019-04-21T19:14:58.007Z,91.40
2019-04-21T19:22:40.152Z,96.80
2019-04-21T19:25:09.611Z,98.80
2019-04-21T19:27:41.858Z,99.90
2019-04-21T19:30:22.398Z,99.90
2019-04-21T19:32:45.194Z,99.90
2019-04-21T19:35:02.350Z,99.90
2019-04-21T19:37:42.281Z,99.90
2019-04-21T19:40:26.615Z,99.90
2019-04-21T19:42:51.167Z,99.90
2019-04-21T19:45:22.413Z,99.90
2019-04-21T19:48:03.825Z,99.90
2019-04-21T19:50:35.160Z,99.90
2019-04-21T19:52:55.671Z,99.90
2019-04-21T19:55:20.098Z,99.90
2019-04-21T19:57:50.361Z,99.90
2019-04-21T20:00:22.254Z,99.90
2019-04-21T20:02:54.502Z,99.90
2019-04-21T20:05:35.278Z,99.90
2019-04-21T20:08:11.633Z,99.90
2019-04-21T20:10:48.342Z,99.90
2019-04-21T20:13:25.933Z,99.90
2019-04-21T20:15:52.283Z,99.90
2019-04-21T20:18:18.803Z,99.90
2019-04-21T20:20:37.513Z,99.90
2019-04-21T20:23:13.213Z,99.90
2019-04-21T20:25:47.457Z,99.90
2019-04-21T20:28:27.136Z,99.90
2019-04-21T20:31:03.883Z,99.90
2019-04-21T20:33:48.494Z,99.90
2019-04-21T20:36:09.695Z,99.90
2019-04-21T20:38:32.728Z,99.90
2019-04-21T20:40:59.986Z,99.90
2019-04-21T20:43:44.558Z,99.90
2019-04-21T20:46:12.021Z,99.90
2019-04-21T20:48:42.799Z,99.90
2019-04-21T20:51:18.542Z,99.90
2019-04-21T20:53:45.002Z,99.90
2019-04-21T20:56:13.024Z,99.90
2019-04-21T20:58:50.269Z,99.90
2019-04-21T21:01:39.357Z,99.90
2019-04-21T21:03:54.092Z,99.10
2019-04-21T21:06:26.086Z,98.90
2019-04-21T21:09:02.998Z,98.10
2019-04-21T21:11:35.279Z,97.90
2019-04-21T21:14:09.986Z,98.00
2019-04-21T21:16:41.893Z,98.00
2019-04-21T21:21:40.007Z,97.60
2019-04-21T21:24:08.679Z,97.00
2019-04-21T21:26:49.603Z,96.70
2019-04-21T21:29:11.623Z,97.00
2019-04-21T21:32:03.718Z,96.60
2019-04-21T21:34:30.953Z,96.70
2019-04-21T21:36:53.792Z,96.90
2019-04-21T21:39:31.858Z,96.70
2019-04-21T21:41:48.551Z,96.50
2019-04-21T21:44:20.054Z,96.40
2019-04-21T21:46:59.176Z,96.40
2019-04-21T21:49:33.547Z,95.90
2019-04-21T21:52:04.452Z,96.00
2019-04-21T21:54:25.848Z,96.10
2019-04-21T21:56:56.401Z,95.60
2019-04-21T21:59:31.086Z,95.50
2019-04-21T22:02:00.241Z,94.90
2019-04-21T22:04:33.827Z,94.40
2019-04-21T22:07:09.232Z,94.20
2019-04-21T22:09:34.733Z,93.50
2019-04-21T22:12:07.174Z,93.10
2019-04-21T22:14:43.542Z,92.90
2019-04-21T22:17:26.631Z,92.30
2019-04-21T22:20:03.748Z,91.80
2019-04-21T22:22:29.578Z,91.10
2019-04-21T22:24:55.550Z,90.70
2019-04-21T22:27:17.083Z,90.50
2019-04-21T22:29:51.595Z,90.60
2019-04-21T22:32:24.812Z,90.00
2019-04-21T22:34:56.508Z,90.00
2019-04-21T22:37:39.162Z,89.60
2019-04-21T22:40:11.635Z,88.90
2019-04-21T22:42:33.190Z,88.60
2019-04-21T22:44:58.966Z,89.90
2019-04-21T22:50:00.128Z,99.90
2019-04-21T22:52:32.006Z,88.60
2019-04-21T22:55:08.531Z,89.70
2019-04-21T22:57:40.798Z,89.10
2019-04-21T23:00:11.847Z,90.00
2019-04-21T23:02:42.750Z,89.50
2019-04-21T23:05:16.851Z,89.30
2019-04-21T23:07:51.633Z,89.30
2019-04-21T23:10:19.595Z,88.70
2019-04-21T23:12:52.202Z,88.20
2019-04-21T23:15:33.222Z,88.20
2019-04-21T23:18:15.871Z,88.30
2019-04-21T23:20:52.152Z,88.80
2019-04-21T23:23:17.656Z,88.70
2019-04-21T23:25:47.198Z,88.40
2019-04-21T23:28:15.802Z,88.50
2019-04-21T23:30:56.712Z,88.00
2019-04-21T23:33:11.896Z,88.20
2019-04-21T23:35:41.797Z,89.50
2019-04-21T23:38:10.996Z,88.10
2019-04-21T23:40:48.763Z,88.90
2019-04-21T23:43:20.522Z,88.70
2019-04-21T23:45:48.173Z,89.20
2019-04-21T23:48:29.810Z,89.40
2019-04-21T23:50:58.063Z,89.20
2019-04-21T23:53:21.759Z,88.50
2019-04-21T23:55:53.032Z,88.00
2019-04-21T23:58:26.439Z,87.40
